Last 24 Hours

Red Mountain

10 Minute Data | America/Los_Angeles
as of 5/20/22 6:41 AM PDT
Date & Time Temp (°F) Dew Pt (°F) RH (%) Wind Spd (mph) Wind Dir (°) Wind Gust (mph) Wind Gst Dir (°) Daily Max Temp (°F) Daily Min Temp (°F)
5/20/22 - 0630 44.1 44.1 100 4.8 W | 273 8.6 W | 272 52.4 43.7
5/20/22 - 0620 44.0 44.0 100 4.1 WSW | 254 7.3 W | 262 52.4 43.7
5/20/22 - 0610 44.1 44.1 100 4.9 WSW | 258 7.8 W | 262 52.4 43.7
5/20/22 - 0600 43.9 43.9 100 6.4 WSW | 252 9.0 W | 263 52.4 43.7
5/20/22 - 0550 43.9 43.9 100 6.8 WSW | 256 10.2 WSW | 254 52.4 43.7
5/20/22 - 0540 44.0 44.0 100 6.5 WSW | 244 8.7 W | 264 52.4 43.7
5/20/22 - 0530 43.9 43.9 100 6.6 WSW | 241 8.8 SW | 233 52.4 43.7
5/20/22 - 0520 44.0 44.0 100 6.5 WSW | 239 8.8 SSW | 210 52.4 43.9
5/20/22 - 0510 44.2 44.2 100 6.0 SW | 227 8.8 SSW | 198 52.4 44.0
5/20/22 - 0500 44.5 44.5 100 6.9 SW | 235 9.5 WSW | 238 52.4 44.3
5/20/22 - 0450 44.4 44.4 100 6.6 SW | 230 9.2 SW | 232 52.4 44.3
5/20/22 - 0440 44.7 44.7 100 6.0 SW | 230 7.6 WSW | 237 52.4 44.5
5/20/22 - 0430 44.8 44.8 100 6.8 WSW | 239 8.8 WSW | 251 52.4 44.8
5/20/22 - 0420 44.9 44.8 100 5.8 W | 260 7.6 WSW | 241 52.4 44.8
5/20/22 - 0410 45.3 45.0 99 5.7 WSW | 248 6.9 WSW | 246 52.4 45.1
5/20/22 - 0400 45.6 45.0 98 5.2 WSW | 258 7.2 WSW | 245 52.4 45.3
5/20/22 - 0350 45.6 44.2 95 1.8 W | 270 4.8 WSW | 238 52.4 45.3
5/20/22 - 0340 47.2 44.5 90 1.9 NW | 313 3.6 NNW | 343 52.4 45.9
5/20/22 - 0330 46.2 45.1 96 2.4 NNW | 346 4.5 NNW | 329 52.4 45.9
5/20/22 - 0320 47.6 44.2 88 3.8 NNW | 343 7.5 NNW | 338 52.4 46.3
5/20/22 - 0310 51.0 42.7 73 1.6 NW | 326 4.5 NW | 313 52.4 49.8
5/20/22 - 0300 50.6 43.9 78 2.6 N | 350 4.7 NNW | 344 52.4 49.8
5/20/22 - 0250 50.4 44.3 79 1.5 NNW | 344 3.7 NNW | 343 52.4 49.8
5/20/22 - 0240 51.1 43.5 75 2.2 WNW | 288 5.2 W | 278 52.4 49.8
5/20/22 - 0230 50.3 44.8 81 1.4 NNW | 327 3.9 WSW | 250 52.4 49.8
5/20/22 - 0220 50.8 45.4 82 2.6 NW | 324 6.0 NW | 308 52.4 50.4
5/20/22 - 0210 51.1 44.5 78 4.3 W | 280 7.9 WNW | 295 52.4 50.9
5/20/22 - 0200 51.0 45.0 80 3.4 WNW | 293 6.1 W | 272 52.4 50.9
5/20/22 - 0150 51.7 44.2 75 5.6 WSW | 255 8.8 WSW | 249 52.4 51.1
5/20/22 - 0140 51.4 45.4 80 4.2 W | 274 7.2 WSW | 241 52.4 51.1
5/20/22 - 0130 51.6 46.2 81 5.5 W | 260 7.7 SW | 235 52.4 51.5
5/20/22 - 0120 51.7 47.1 84 6.2 WSW | 245 8.1 WSW | 249 52.4 51.5
5/20/22 - 0110 52.2 46.8 82 7.7 WSW | 246 11.4 WSW | 241 52.4 51.9
5/20/22 - 0100 52.5 46.6 80 8.0 WSW | 247 10.4 WSW | 244 73.6 52.3
5/20/22 - 0050 52.9 46.3 78 6.9 WSW | 248 9.6 WSW | 247 73.6 52.8
5/20/22 - 0040 53.3 46.2 77 6.9 WSW | 258 11.7 WSW | 251 73.6 53.1
5/20/22 - 0030 53.5 46.2 76 6.9 W | 269 9.9 WSW | 256 73.6 53.4
5/20/22 - 0020 53.6 46.4 76 7.0 W | 277 9.3 W | 276 73.6 53.5
5/20/22 - 0010 54.2 45.8 73 8.1 W | 268 13.2 WSW | 244 73.6 53.8
5/20/22 - 0000 54.6 45.4 71 8.0 W | 265 11.0 W | 268 73.6 54.4
5/19/22 - 2350 55.0 44.5 68 8.6 WSW | 250 10.8 W | 261 73.6 54.8
5/19/22 - 2340 55.1 44.6 68 8.0 W | 260 10.9 WSW | 251 73.6 54.8
5/19/22 - 2330 55.0 45.3 70 8.1 W | 266 10.9 WSW | 248 73.6 54.8
5/19/22 - 2320 55.7 44.4 66 9.4 WSW | 256 12.7 W | 263 73.6 55.1
5/19/22 - 2310 56.2 43.6 63 9.3 WSW | 247 12.7 WSW | 244 73.6 55.9
5/19/22 - 2300 56.5 43.4 61 8.8 WSW | 249 11.5 WSW | 244 73.6 55.9
5/19/22 - 2250 56.8 42.6 59 8.9 WSW | 247 12.9 WSW | 253 73.6 55.9
5/19/22 - 2240 56.6 43.4 61 7.9 WSW | 256 10.6 WSW | 251 73.6 55.9
5/19/22 - 2230 56.3 44.5 65 7.7 W | 262 10.4 W | 266 73.6 55.9
5/19/22 - 2220 56.4 45.0 66 7.7 W | 265 10.0 W | 269 73.6 56.2
5/19/22 - 2210 56.6 45.5 66 7.5 W | 272 9.1 W | 271 73.6 56.3
5/19/22 - 2200 57.0 44.4 63 8.0 W | 272 12.1 WSW | 252 73.6 56.5
5/19/22 - 2150 57.0 45.0 64 8.1 WNW | 285 11.0 WNW | 286 73.6 56.8
5/19/22 - 2140 57.1 45.3 65 8.9 WNW | 284 10.6 WNW | 283 73.6 57.0
5/19/22 - 2130 57.3 46.0 66 9.3 WNW | 284 11.8 WNW | 286 73.6 57.0
5/19/22 - 2120 57.9 45.3 63 10.0 W | 271 13.0 WSW | 254 73.6 57.7
5/19/22 - 2110 57.9 45.1 62 10.8 W | 271 13.0 W | 265 73.6 57.7
5/19/22 - 2100 58.0 45.5 63 10.6 W | 274 14.5 W | 276 73.6 57.7
5/19/22 - 2050 58.6 45.5 62 9.8 W | 278 12.1 WNW | 284 73.6 57.9
5/19/22 - 2040 59.1 44.9 59 9.3 W | 267 12.2 W | 273 73.6 58.7
5/19/22 - 2030 59.3 44.7 58 8.9 W | 263 10.8 W | 266 73.6 58.9
5/19/22 - 2020 59.3 45.2 59 7.5 W | 268 10.4 W | 259 73.6 58.9
5/19/22 - 2010 59.7 44.8 58 6.9 W | 271 8.6 W | 270 73.6 59.6
5/19/22 - 2000 59.8 44.7 57 6.5 W | 274 8.5 W | 276 73.6 59.6
5/19/22 - 1950 60.1 45.6 59 5.2 W | 270 6.4 W | 271 73.6 59.8
5/19/22 - 1940 60.6 46.7 60 6.1 W | 262 7.2 WSW | 252 73.6 60.1
5/19/22 - 1930 61.4 47.5 60 6.1 W | 267 7.7 W | 269 73.6 61.1
5/19/22 - 1920 62.2 48.4 61 5.6 W | 272 8.0 W | 275 73.6 61.7
5/19/22 - 1910 62.9 48.6 59 6.2 W | 259 8.7 W | 263 73.6 62.3
5/19/22 - 1900 63.8 48.7 58 7.0 W | 266 11.5 W | 264 73.6 63.2
5/19/22 - 1850 64.8 48.5 56 7.6 W | 264 11.1 WSW | 251 73.6 64.2
5/19/22 - 1840 65.0 49.0 56 5.7 W | 259 9.1 WSW | 254 73.6 64.5
5/19/22 - 1830 65.6 49.0 55 6.5 WSW | 245 9.7 WSW | 256 73.6 65.0
5/19/22 - 1820 66.4 48.8 53 7.4 WSW | 251 10.5 SW | 220 73.6 65.5
5/19/22 - 1810 66.6 50.0 55 7.5 WSW | 245 12.2 W | 263 73.6 65.5
5/19/22 - 1800 67.1 50.2 55 7.3 WSW | 250 11.0 WSW | 251 73.6 65.5
5/19/22 - 1750 67.3 47.9 50 7.1 WSW | 247 10.4 W | 261 73.6 65.5
5/19/22 - 1740 66.2 48.4 53 5.8 SW | 233 9.0 WSW | 251 73.6 65.5
5/19/22 - 1730 66.6 47.9 51 7.3 WSW | 237 10.2 WSW | 242 73.6 65.7
5/19/22 - 1720 67.4 48.0 50 7.3 SW | 233 11.2 SW | 232 73.6 66.6
5/19/22 - 1710 67.9 47.0 47 8.2 SW | 230 13.2 SW | 231 73.6 67.0
5/19/22 - 1700 68.5 45.3 43 8.4 SW | 230 12.2 SW | 236 73.6 67.1
5/19/22 - 1650 68.7 44.2 41 10.2 SW | 235 14.8 SW | 220 73.6 67.1
5/19/22 - 1640 70.2 45.4 41 9.2 SW | 230 14.7 SW | 228 73.6 67.1
5/19/22 - 1630 70.6 41.5 35 9.7 WSW | 239 15.5 WSW | 248 73.6 67.1
5/19/22 - 1620 70.4 43.4 38 10.1 WSW | 239 15.8 W | 262 73.6 67.1
5/19/22 - 1610 69.5 46.5 44 9.6 WSW | 241 15.2 SW | 234 73.6 67.1
5/19/22 - 1600 69.6 46.8 44 9.9 WSW | 241 15.7 W | 263 73.6 67.1
5/19/22 - 1550 69.3 47.9 46 10.8 WSW | 241 15.9 SW | 236 73.6 67.1
5/19/22 - 1540 69.4 49.3 49 10.8 SW | 233 15.9 SW | 235 73.6 67.1
5/19/22 - 1530 69.5 49.2 48 11.2 SW | 235 19.0 WSW | 240 73.6 67.1
5/19/22 - 1520 69.7 49.7 49 11.4 WSW | 240 16.7 WSW | 244 73.6 67.1
5/19/22 - 1510 70.2 49.7 48 13.0 WSW | 246 17.4 WSW | 241 73.6 67.1
5/19/22 - 1500 70.7 49.4 47 12.2 SW | 236 17.5 SW | 232 73.6 67.1
5/19/22 - 1450 71.0 49.2 46 10.9 SW | 233 16.4 WSW | 250 73.6 67.1
5/19/22 - 1440 71.3 49.3 46 10.0 SW | 228 15.1 SW | 223 73.6 67.1
5/19/22 - 1430 71.4 48.3 44 10.6 WSW | 238 17.5 SW | 216 73.6 67.1
5/19/22 - 1420 71.4 48.3 44 9.8 SW | 233 16.2 WSW | 248 73.6 67.1
5/19/22 - 1410 71.2 48.8 45 11.2 WSW | 248 18.6 WSW | 258 73.6 67.1
5/19/22 - 1400 70.8 48.8 46 12.1 WSW | 255 16.9 WSW | 257 73.6 67.1
5/19/22 - 1350 70.2 48.9 47 12.0 WSW | 255 18.7 WSW | 258 73.6 67.1
5/19/22 - 1340 70.2 49.0 47 11.7 WSW | 257 18.8 WSW | 248 73.6 67.1
5/19/22 - 1330 69.8 49.3 48 9.7 WSW | 253 16.9 SW | 228 73.6 67.1
5/19/22 - 1320 71.0 49.1 46 11.0 WSW | 249 18.5 W | 264 73.6 67.1
5/19/22 - 1310 69.5 49.4 49 9.7 WSW | 251 14.5 SW | 231 73.6 67.1
5/19/22 - 1300 68.7 48.6 49 9.9 WSW | 251 15.0 W | 261 73.6 67.1
5/19/22 - 1250 68.4 50.3 52 10.6 WSW | 257 16.8 WSW | 256 73.6 67.1
5/19/22 - 1240 68.7 50.6 52 10.1 W | 260 15.4 W | 268 73.6 67.1
5/19/22 - 1230 69.1 50.9 52 10.6 W | 259 15.7 WSW | 248 73.6 67.1
5/19/22 - 1220 68.9 51.1 53 9.4 W | 265 14.0 W | 263 73.6 67.1
5/19/22 - 1210 67.7 51.2 55 10.7 WSW | 257 15.1 W | 264 73.6 67.1
5/19/22 - 1200 68.0 51.3 55 10.2 WSW | 255 14.8 WSW | 250 73.6 67.1
5/19/22 - 1150 68.4 50.9 54 10.1 WSW | 249 14.2 WSW | 251 73.6 67.1
5/19/22 - 1140 68.9 50.0 51 8.3 WSW | 241 13.2 WSW | 252 73.6 67.1
5/19/22 - 1130 70.2 49.4 48 7.2 SW | 231 12.6 SW | 225 73.6 67.1
5/19/22 - 1120 69.7 49.4 48 7.2 WSW | 240 12.4 SW | 221 73.6 67.1
5/19/22 - 1110 69.4 49.7 49 6.3 SW | 226 13.2 WSW | 242 73.6 67.1
5/19/22 - 1100 68.6 49.6 51 7.3 WSW | 237 11.8 WSW | 239 73.6 67.1
5/19/22 - 1050 68.8 50.1 51 6.0 SW | 229 11.4 SW | 223 73.6 67.1
5/19/22 - 1040 68.4 50.6 53 6.7 SW | 235 9.9 SW | 227 73.6 67.1
5/19/22 - 1030 68.6 50.8 53 5.8 SW | 235 9.1 WSW | 255 73.6 67.1
5/19/22 - 1020 68.2 50.2 52 5.8 WSW | 237 10.6 WSW | 242 73.6 67.1
5/19/22 - 1010 67.6 49.7 53 4.5 SW | 233 7.7 WSW | 246 73.6 67.1
5/19/22 - 1000 67.3 49.0 52 5.3 WSW | 249 8.8 WSW | 246 73.6 67.1
5/19/22 - 0950 67.7 48.4 50 4.8 SW | 236 9.6 SW | 236 73.6 67.2
5/19/22 - 0940 68.2 47.4 47 4.1 SW | 232 7.2 WSW | 241 73.6 67.2
5/19/22 - 0930 68.0 46.9 47 4.0 SW | 236 6.6 WSW | 243 73.6 67.2
5/19/22 - 0920 69.3 46.7 44 2.9 SW | 221 4.9 SW | 225 73.6 67.2
5/19/22 - 0910 72.1 43.2 36 2.2 W | 261 5.0 ENE | 64 73.6 67.2
5/19/22 - 0900 70.7 42.2 36 1.9 SW | 222 4.9 ENE | 76 73.0 67.2
5/19/22 - 0850 71.4 38.9 31 1.6 SSE | 159 5.3 E | 89 73.0 67.2
5/19/22 - 0840 71.3 37.6 29 1.2 S | 181 4.5 E | 85 73.0 67.2
5/19/22 - 0830 71.4 37.0 28 1.2 SW | 235 4.7 NE | 44 73.0 67.2
5/19/22 - 0820 71.8 36.8 28 0.7 SW | 224 3.5 NE | 39 73.0 67.2
5/19/22 - 0810 72.4 36.5 27 1.8 ESE | 115 3.4 E | 83 72.9 67.2
5/19/22 - 0800 71.6 35.9 27 1.9 ESE | 116 3.4 E | 99 71.8 67.2
5/19/22 - 0750 71.0 36.8 29 2.2 ESE | 109 3.5 ESE | 119 71.5 67.2
5/19/22 - 0740 70.6 36.7 29 3.1 ESE | 121 4.8 ESE | 122 71.5 67.2
5/19/22 - 0730 70.6 36.6 29 3.2 ESE | 118 4.4 SE | 124 71.5 67.2
5/19/22 - 0720 71.2 36.8 28 2.4 ESE | 117 3.5 SE | 125 71.5 67.2
5/19/22 - 0710 71.1 37.1 29 2.3 E | 95 3.5 E | 82 71.4 67.2
5/19/22 - 0700 70.8 36.1 28 4.2 ENE | 78 5.4 ENE | 75 70.9 67.2
5/19/22 - 0650 70.6 36.2 28 2.8 E | 98 4.9 E | 79 70.8 67.2
5/19/22 - 0640 70.0 35.4 28 3.9 E | 83 5.0 E | 80 70.8 67.2
Max 72.4 51.3 100 13.0 - 19.0 - 73.6 67.2
Avg 61.2 45.7 60 6.8 - 10.3 - - -
Min 43.9 35.4 27 0.7 - 3.4 - 52.4 43.7